Amelia Island, FL

8:53 AM EDT on September 01, 2015 (GMT -0400)
JP House | | Change Station
CLOSE
Current Station
Personal Weather Station
Location: Fernandina Beach, FL
Elevation: 26 ft
Nearby Weather Stations

Elev 26 ft 30.64 °N, 81.45 °W | Updated 8 seconds ago

Thunderstorm
Thunderstorm
79.7 °F
Feels Like 86 °F
N
0.0
Wind Variable Wind from SSE
Gusts 0.0 mph

Today
High -- | Low -- °F
--% Chance of Precip.
Yesterday
High -- | Low -- °F
Precip. -- in
7:02 AM 7:49 PM
Waning Gibbous, 89% visible
Pressure 30.06 in
Visibility 7.0 miles
Clouds Scattered Clouds 1700 ft
Scattered Clouds 6000 ft
Scattered Clouds 7500 ft
Heat Index 86 °F
Dew Point 79 °F
Humidity 98%
Rainfall 0.00 in
Snow Depth Not available.
UV 1.0 out of 12
Pollen 5.40 out of 12
Air Quality Not available.
Flu Activity Not available.
METAR KFHB 011235Z AUTO 00000KT 7SM TS SCT017 SCT060 SCT075 28/26 A3006 RMK AO1 LTG DSNT NE THRU S
Pressure 30.06 in
Visibility 7.0 miles
Clouds Scattered Clouds 1700 ft
Scattered Clouds 6000 ft
Scattered Clouds 7500 ft
Heat Index 86 °F
Dew Point 79 °F
Humidity 98%
Rainfall 0.00 in
Snow Depth Not available.
UV 1.0 out of 12
Pollen 5.40 out of 12
Air Quality Not available.
Flu Activity Not available.
METAR KFHB 011235Z AUTO 00000KT 7SM TS SCT017 SCT060 SCT075 28/26 A3006 RMK AO1 LTG DSNT NE THRU S

10-Day Weather Forecast

×

Almanac

Astronomy

Sep. 01, 2015 Rise Set
Actual Time
Civil Twilight
Nautical Twilight
Astronomical Twilight
Moon
Length of Visible Light
Length of Day
Tomorrow will be .
, % of the Moon is Illuminated

Today's Extremes

State Highs State Lows

Community

WunderPhotos

Upload Photos

1,851,510 photos uploaded!

WunderBlogs® & News

Nearby

Air Quality

  Air Quality AQ Index Pollutant
Not available.

Snow Depth

Station Depth Elevation

Earthquake Activity

City Distance Mag. Time & Date
Minimum magnitude displayed is 2.5.

Coastal Water Temperatures

Place Temperature

Stations

Nearby Weather Stations

Station Location Temp. Windchill Dew Point Humidity Wind Precip. Elev Updated Type